This is the latest recevied weather packets stored in our database for station/object F6JSP-13. If no packets are shown the sender has not sent any weather packets the latest 10 day(s).
| Time | Temp. | Humidity | Pressure | Rain* | Wind** | Luminosity | Snow |
|---|---|---|---|---|---|---|---|
| 1777597806 | 13.89° C | 99% | 1017.1 hPa | 0 mm | - | 0 W/m² | - |
| 1777597505 | 13.33° C | 99% | 1017 hPa | 0 mm | - | 0 W/m² | - |
| 1777595405 | 13.89° C | 99% | 1017.1 hPa | 0 mm | - | 0 W/m² | - |
| 1777593605 | 13.33° C | 99% | 1016.7 hPa | 0 mm | - | 0 W/m² | - |
| 1777591505 | 14.44° C | 98% | 1017.3 hPa | 0 mm | - | 0 W/m² | - |
| 1777590605 | 14.44° C | 97% | 1017 hPa | 0 mm | - | 0 W/m² | - |
| 1777586405 | 16.11° C | 94% | 1016.9 hPa | 0 mm | - | 0 W/m² | - |
| 1777584605 | 16.67° C | 91% | 1016.8 hPa | 0 mm | - | 0 W/m² | - |
| 1777584305 | 16.67° C | 91% | 1016.4 hPa | 0 mm | - | 0 W/m² | - |
| 1777583105 | 17.22° C | 91% | 1016.6 hPa | 0 mm | - | 0 W/m² | - |
| 1777582505 | 17.22° C | 90% | 1016.8 hPa | 0 mm | - | 0 W/m² | - |
| 1777580106 | 17.22° C | 92% | 1016.6 hPa | 0 mm | - | 0 W/m² | - |
| 1777578906 | 17.78° C | 89% | 1016.3 hPa | 0 mm | - | 0 W/m² | - |
| 1777573506 | 18.33° C | 75% | 1015 hPa | 0 mm | - | 11 W/m² | - |
| 1777567505 | 19.44° C | 70% | 1014.5 hPa | 0 mm | - | 83 W/m² | - |
| 1777567206 | 20° C | 67% | 1014.5 hPa | 0 mm | - | 75 W/m² | - |
| 1777566605 | 20.56° C | 63% | 1014.2 hPa | 0 mm | - | 104 W/m² | - |
| 1777563306 | 21.67° C | 55% | 1014 hPa | 0 mm | - | 154 W/m² | - |
| 1777562705 | 21.67° C | 53% | 1013.7 hPa | 0 mm | - | 208 W/m² | - |
| 1777562105 | 22.22° C | 52% | 1013.7 hPa | 0 mm | - | 255 W/m² | - |
| 1777561805 | 22.22° C | 53% | 1013.7 hPa | 0 mm | - | 269 W/m² | - |
| 1777561205 | 22.22° C | 52% | 1013.5 hPa | 0 mm | - | 284 W/m² | - |
| 1777560606 | 22.78° C | 49% | 1013.9 hPa | 0 mm | - | 363 W/m² | - |
| 1777558206 | 23.33° C | 47% | 1013.6 hPa | 0 mm | - | 505 W/m² | - |
| 1777557905 | 22.78° C | 49% | 1013.8 hPa | 0 mm | - | 755 W/m² | - |
* Rain latest hour (hover to see other rain measurements)
** Current wind speed in m/s (hover to see current wind gust speed)